Time;durP1;ratioP1;P1;durP2;ratioP2;P2;SDS_P1;SDS_P2;PMS_P1;PMS_P2;Temp;Humidity;BMP_temperature;BMP_pressure;BME280_temperature;BME280_humidity;BME280_pressure;Samples;Min_cycle;Max_cycle;Signal;HPM_P1;HPM_P2
2021/01/14 00:01:40;;;;;;;6.25;2.03;;;;;;;2.44;100.00;100359.81;4913636;29;20043;-77
2021/01/14 00:04:05;;;;;;;5.57;1.60;;;;;;;2.49;100.00;100368.44;4910322;29;20064;-77
2021/01/14 00:06:31;;;;;;;7.22;2.25;;;;;;;2.53;100.00;100371.25;4922250;29;20100;-76
2021/01/14 00:08:56;;;;;;;3.35;2.05;;;;;;;2.51;100.00;100371.56;4913092;29;20028;-77
2021/01/14 00:11:22;;;;;;;4.93;2.03;;;;;;;2.50;100.00;100377.16;4912534;29;20035;-77
2021/01/14 00:13:47;;;;;;;7.90;2.38;;;;;;;2.51;100.00;100376.09;4905360;29;20089;-77
2021/01/14 00:16:13;;;;;;;5.82;2.20;;;;;;;2.46;100.00;100384.97;4908255;29;20098;-76
2021/01/14 00:18:38;;;;;;;12.02;2.20;;;;;;;2.37;100.00;100381.50;4912760;29;20047;-77
2021/01/14 00:21:04;;;;;;;4.10;2.17;;;;;;;2.27;100.00;100391.63;4907559;29;20039;-76
2021/01/14 00:23:29;;;;;;;3.28;2.20;;;;;;;2.33;100.00;100377.91;4909298;29;20032;-76
2021/01/14 00:25:55;;;;;;;6.53;2.42;;;;;;;2.26;100.00;100390.06;4914381;29;20036;-76
2021/01/14 00:28:20;;;;;;;10.02;2.60;;;;;;;2.20;100.00;100388.63;4908938;29;20029;-76
2021/01/14 00:30:45;;;;;;;5.97;2.33;;;;;;;2.21;100.00;100392.81;4908759;29;20485;-77
2021/01/14 00:33:11;;;;;;;8.98;2.60;;;;;;;2.32;100.00;100405.53;4917546;29;20094;-76
2021/01/14 00:35:36;;;;;;;4.95;2.17;;;;;;;2.21;100.00;100414.88;4905995;29;20153;-76
2021/01/14 00:38:04;;;;;;;7.00;2.42;;;;;;;2.33;100.00;100411.63;4891788;29;20064;-76
2021/01/14 00:40:32;;;;;;;10.95;2.60;;;;;;;2.18;100.00;100427.97;4895869;29;20039;-76
2021/01/14 00:43:08;;;;;;;7.28;2.60;;;;;;;2.34;100.00;100429.16;4899828;29;20039;-76
2021/01/14 00:45:35;;;;;;;7.13;2.10;;;;;;;2.42;100.00;100431.84;4911868;29;20035;-76
2021/01/14 00:48:02;;;;;;;4.45;2.53;;;;;;;2.30;100.00;100449.44;4914576;29;20043;-76
2021/01/14 00:50:28;;;;;;;4.68;2.35;;;;;;;2.29;100.00;100453.97;4901147;29;20055;-77
2021/01/14 00:52:54;;;;;;;5.75;2.78;;;;;;;2.34;100.00;100451.16;4910803;29;20036;-76
2021/01/14 00:55:20;;;;;;;7.93;2.47;;;;;;;2.39;100.00;100460.91;4899620;29;20024;-76
2021/01/14 00:57:46;;;;;;;4.75;2.45;;;;;;;2.38;100.00;100459.34;4915155;29;20039;-77
2021/01/14 01:00:19;;;;;;;8.82;2.65;;;;;;;2.36;100.00;100475.56;4913415;29;20055;-76
2021/01/14 01:02:46;;;;;;;6.25;2.35;;;;;;;2.33;100.00;100472.72;4924569;29;20046;-77
2021/01/14 01:05:12;;;;;;;4.60;2.22;;;;;;;2.35;100.00;100491.81;4914968;29;20118;-76
2021/01/14 01:07:38;;;;;;;4.88;2.90;;;;;;;2.31;100.00;100482.88;4916042;29;20379;-77
2021/01/14 01:10:06;;;;;;;6.13;2.53;;;;;;;2.31;100.00;100491.63;4916004;29;20036;-77
2021/01/14 01:12:32;;;;;;;3.92;2.47;;;;;;;2.26;100.00;100502.41;4916846;29;21899;-77
2021/01/14 01:14:57;;;;;;;4.05;2.30;;;;;;;2.23;100.00;100504.84;4914171;29;20040;-76
2021/01/14 01:17:23;;;;;;;4.80;2.40;;;;;;;2.27;100.00;100514.56;4920208;29;20028;-76
2021/01/14 01:19:48;;;;;;;7.90;2.30;;;;;;;2.22;100.00;100516.56;4915807;29;20063;-76
2021/01/14 01:22:18;;;;;;;4.32;2.38;;;;;;;2.36;100.00;100526.03;4903096;29;20104;-76
2021/01/14 01:24:44;;;;;;;4.47;2.17;;;;;;;2.28;100.00;100534.75;4912374;29;20409;-77
2021/01/14 01:27:10;;;;;;;4.90;2.13;;;;;;;2.38;100.00;100544.34;4924955;29;20027;-76
2021/01/14 01:29:35;;;;;;;5.55;2.30;;;;;;;2.42;100.00;100554.03;4903045;29;20032;-77
2021/01/14 01:32:01;;;;;;;3.67;2.40;;;;;;;2.49;100.00;100557.09;4913811;29;20031;-76
2021/01/14 01:34:26;;;;;;;4.82;2.10;;;;;;;2.42;100.00;100563.91;4911566;29;20047;-77
2021/01/14 01:36:52;;;;;;;3.30;2.08;;;;;;;2.48;100.00;100562.69;4916103;29;20075;-76
2021/01/14 01:39:17;;;;;;;7.47;2.47;;;;;;;2.47;100.00;100585.03;4908854;29;20044;-76
2021/01/14 01:41:43;;;;;;;5.55;2.47;;;;;;;2.50;100.00;100577.22;4915764;29;20036;-76
2021/01/14 01:44:09;;;;;;;2.60;2.13;;;;;;;2.42;100.00;100590.47;4904314;29;20036;-76
2021/01/14 01:46:55;;;;;;;3.70;2.10;;;;;;;2.48;100.00;100608.63;4907593;29;20176;-76
2021/01/14 01:49:22;;;;;;;4.20;2.15;;;;;;;2.54;100.00;100606.63;4893702;29;20447;-77
2021/01/14 01:51:51;;;;;;;4.45;2.50;;;;;;;2.49;100.00;100610.22;4903744;29;20046;-76
2021/01/14 01:54:37;;;;;;;6.25;2.60;;;;;;;2.40;100.00;100619.97;4903919;29;20045;-76
2021/01/14 01:57:06;;;;;;;3.25;2.60;;;;;;;2.38;100.00;100614.19;4856481;29;20423;-77
2021/01/14 01:59:32;;;;;;;4.60;2.55;;;;;;;2.46;100.00;100618.78;4838965;29;20519;-77
2021/01/14 02:02:17;;;;;;;8.32;3.20;;;;;;;2.44;100.00;100636.88;4845761;29;20476;-75
2021/01/14 02:04:43;;;;;;;6.20;2.70;;;;;;;2.25;100.00;100635.47;4856402;29;20132;-76
2021/01/14 02:07:10;;;;;;;5.82;2.83;;;;;;;2.35;100.00;100648.53;4850012;29;20128;-75
2021/01/14 02:09:39;;;;;;;8.95;3.50;;;;;;;2.41;100.00;100644.69;4839152;29;20050;-75
2021/01/14 02:12:05;;;;;;;4.88;3.08;;;;;;;2.42;100.00;100657.66;4854525;29;20066;-75
2021/01/14 02:14:34;;;;;;;4.68;2.75;;;;;;;2.46;100.00;100657.84;4834489;29;20046;-75
2021/01/14 02:16:59;;;;;;;6.45;3.28;;;;;;;2.41;100.00;100673.91;4849448;29;20041;-76
2021/01/14 02:19:38;;;;;;;4.93;3.20;;;;;;;2.41;100.00;100682.66;4836705;29;20056;-76
2021/01/14 02:22:11;;;;;;;8.13;3.40;;;;;;;2.36;100.00;100689.97;4862008;29;20081;-75
2021/01/14 02:24:41;;;;;;;7.93;3.42;;;;;;;2.45;100.00;100690.81;4839966;29;20267;-76
2021/01/14 02:27:08;;;;;;;7.88;3.30;;;;;;;2.38;100.00;100696.53;4832023;29;20045;-76
2021/01/14 02:29:36;;;;;;;6.60;3.42;;;;;;;2.43;100.00;100704.41;4839069;29;20116;-76
2021/01/14 02:32:02;;;;;;;8.32;3.67;;;;;;;2.40;100.00;100709.53;4836764;29;20127;-76
2021/01/14 02:34:28;;;;;;;6.70;3.90;;;;;;;2.42;100.00;100713.44;4881458;29;20108;-76
2021/01/14 02:36:53;;;;;;;12.98;4.15;;;;;;;2.38;100.00;100717.03;4910884;29;20032;-76
2021/01/14 02:39:19;;;;;;;6.65;4.05;;;;;;;2.45;100.00;100725.38;4914375;29;20067;-76
2021/01/14 02:41:44;;;;;;;11.63;4.45;;;;;;;2.43;100.00;100727.53;4914485;29;20032;-76
2021/01/14 02:44:10;;;;;;;7.75;3.90;;;;;;;2.57;100.00;100720.31;4913400;29;20532;-76
2021/01/14 02:46:36;;;;;;;9.20;4.20;;;;;;;2.49;100.00;100743.06;4911770;29;20024;-75
2021/01/14 02:49:08;;;;;;;10.88;4.35;;;;;;;2.42;100.00;100745.34;4913339;29;20048;-76
2021/01/14 02:51:47;;;;;;;9.45;4.32;;;;;;;2.51;100.00;100748.09;4896399;29;20490;-75
2021/01/14 02:54:14;;;;;;;9.20;4.43;;;;;;;2.47;100.00;100757.72;4913544;29;20425;-76
2021/01/14 02:56:41;;;;;;;6.47;3.95;;;;;;;2.51;100.00;100750.75;4924071;29;20040;-76
2021/01/14 02:59:09;;;;;;;9.52;4.70;;;;;;;2.47;100.00;100760.38;4912986;29;20055;-75
2021/01/14 03:01:35;;;;;;;7.72;4.45;;;;;;;2.40;100.00;100776.72;4910375;29;20035;-75
2021/01/14 03:04:01;;;;;;;10.88;4.43;;;;;;;2.50;100.00;100781.03;4903892;29;20086;-75
2021/01/14 03:06:27;;;;;;;8.20;4.20;;;;;;;2.44;100.00;100784.91;4915744;29;20050;-76
2021/01/14 03:08:53;;;;;;;8.02;4.47;;;;;;;2.52;100.00;100798.28;4915564;29;20115;-76
2021/01/14 03:11:30;;;;;;;9.80;4.25;;;;;;;2.55;100.00;100796.91;4916692;29;20102;-76
2021/01/14 03:13:56;;;;;;;8.10;4.07;;;;;;;2.49;100.00;100796.22;4917203;29;20051;-76
2021/01/14 03:16:22;;;;;;;11.02;4.90;;;;;;;2.65;100.00;100813.41;4912453;29;20032;-75
2021/01/14 03:19:08;;;;;;;9.10;4.68;;;;;;;2.64;100.00;100806.53;4909291;29;20533;-75
2021/01/14 03:21:34;;;;;;;11.85;4.47;;;;;;;2.61;100.00;100819.63;4934302;29;20099;-75
2021/01/14 03:23:59;;;;;;;9.10;4.60;;;;;;;2.54;100.00;100821.88;4934802;29;20082;-75
2021/01/14 03:26:25;;;;;;;9.45;5.20;;;;;;;2.54;100.00;100827.19;4931106;29;20071;-76
2021/01/14 03:28:53;;;;;;;11.23;5.00;;;;;;;2.57;100.00;100835.38;4914416;29;20031;-75
2021/01/14 03:31:19;;;;;;;10.57;5.07;;;;;;;2.52;100.00;100832.81;4931381;29;20567;-76
2021/01/14 03:33:45;;;;;;;13.35;5.75;;;;;;;2.54;100.00;100840.47;4921872;29;20048;-76
2021/01/14 03:36:16;;;;;;;13.55;5.68;;;;;;;2.56;100.00;100835.66;4928444;29;20050;-76
2021/01/14 03:38:42;;;;;;;11.18;5.20;;;;;;;2.53;100.00;100836.25;4915115;29;20109;-75
2021/01/14 03:41:13;;;;;;;12.90;5.20;;;;;;;2.60;100.00;100857.91;4932672;29;20035;-75
2021/01/14 03:43:39;;;;;;;14.38;5.25;;;;;;;2.57;100.00;100859.31;4926768;29;20597;-75
2021/01/14 03:46:11;;;;;;;11.63;5.55;;;;;;;2.56;100.00;100859.56;4917865;29;20051;-75
2021/01/14 03:48:39;;;;;;;12.57;5.78;;;;;;;2.58;100.00;100863.53;4933219;29;20646;-75
2021/01/14 03:51:04;;;;;;;12.10;5.03;;;;;;;2.47;100.00;100877.31;4934576;29;20075;-75
2021/01/14 03:53:30;;;;;;;10.18;5.25;;;;;;;2.50;100.00;100876.69;4920634;29;20027;-75
2021/01/14 03:55:56;;;;;;;11.02;5.47;;;;;;;2.52;100.00;100888.63;4918383;29;20050;-75
2021/01/14 03:58:21;;;;;;;14.77;5.43;;;;;;;2.56;100.00;100891.47;4897985;29;20044;-76
2021/01/14 04:00:47;;;;;;;10.25;5.65;;;;;;;2.55;100.00;100898.69;4910360;29;20050;-76
2021/01/14 04:03:12;;;;;;;13.65;5.70;;;;;;;2.57;100.00;100907.16;4932431;29;20039;-76
2021/01/14 04:05:37;;;;;;;16.05;5.80;;;;;;;2.68;100.00;100907.72;4914971;29;20478;-76
2021/01/14 04:08:03;;;;;;;15.10;5.47;;;;;;;2.61;100.00;100910.00;4915198;29;20127;-75
2021/01/14 04:10:29;;;;;;;11.52;4.72;;;;;;;2.57;100.00;100919.63;4916696;29;20035;-75
2021/01/14 04:12:54;;;;;;;16.88;5.25;;;;;;;2.61;100.00;100912.66;4918242;29;20043;-75
2021/01/14 04:15:20;;;;;;;13.55;5.18;;;;;;;2.69;100.00;100923.38;4913853;29;20119;-75
2021/01/14 04:17:45;;;;;;;12.32;5.32;;;;;;;2.72;100.00;100929.97;4915509;29;20063;-76
2021/01/14 04:20:11;;;;;;;11.68;5.75;;;;;;;2.66;100.00;100923.16;4907809;29;20039;-75
2021/01/14 04:22:36;;;;;;;11.30;5.22;;;;;;;2.59;100.00;100930.75;4896176;29;20044;-75
2021/01/14 04:25:02;;;;;;;13.95;5.40;;;;;;;2.66;100.00;100931.94;4914489;29;20051;-75
2021/01/14 04:27:30;;;;;;;15.75;6.25;;;;;;;2.66;100.00;100937.25;4919845;29;20032;-76
2021/01/14 04:29:55;;;;;;;12.60;5.13;;;;;;;2.64;100.00;100946.59;4914108;29;20051;-75
2021/01/14 04:32:22;;;;;;;14.55;5.43;;;;;;;2.61;100.00;100942.66;4911922;29;20043;-76
2021/01/14 04:34:47;;;;;;;12.07;5.82;;;;;;;2.62;100.00;100951.41;4906275;29;20051;-76
2021/01/14 04:37:13;;;;;;;14.13;6.85;;;;;;;2.66;100.00;100949.75;4912904;29;20028;-76
2021/01/14 04:39:38;;;;;;;12.32;6.55;;;;;;;2.60;100.00;100956.25;4892029;29;20088;-75
2021/01/14 04:42:07;;;;;;;13.00;6.60;;;;;;;2.63;100.00;100955.66;4918090;29;20036;-75
2021/01/14 04:44:32;;;;;;;14.13;6.30;;;;;;;2.70;100.00;100964.03;4906004;29;20053;-76
2021/01/14 04:47:07;;;;;;;19.08;6.60;;;;;;;2.57;100.00;100964.81;4903290;29;20526;-76
2021/01/14 04:49:33;;;;;;;12.23;6.35;;;;;;;2.70;100.00;100972.00;4919313;29;20099;-75
2021/01/14 04:52:06;;;;;;;14.95;6.32;;;;;;;2.67;100.00;100977.94;4914981;29;20048;-76
2021/01/14 04:54:34;;;;;;;12.18;6.63;;;;;;;2.83;100.00;100981.09;4933234;29;20090;-76
2021/01/14 04:57:04;;;;;;;14.55;7.05;;;;;;;2.70;100.00;100985.31;4919653;29;20067;-75
2021/01/14 04:59:32;;;;;;;16.23;6.72;;;;;;;2.71;100.00;100992.19;4918336;29;20082;-76
2021/01/14 05:01:59;;;;;;;12.35;6.57;;;;;;;2.77;100.00;100990.25;4921303;29;20455;-76
2021/01/14 05:04:30;;;;;;;14.15;6.90;;;;;;;2.67;100.00;101004.50;4909704;29;20066;-76
2021/01/14 05:06:58;;;;;;;12.20;6.18;;;;;;;2.59;100.00;101000.63;4923288;29;20036;-75
2021/01/14 05:09:32;;;;;;;19.15;7.22;;;;;;;2.62;100.00;101004.56;4908828;29;20036;-76
2021/01/14 05:11:58;;;;;;;15.63;6.40;;;;;;;2.70;100.00;101009.22;4916113;29;20036;-75
2021/01/14 05:14:24;;;;;;;18.90;7.57;;;;;;;2.77;100.00;101017.59;4897139;29;20494;-75
2021/01/14 05:16:50;;;;;;;14.45;7.20;;;;;;;2.80;100.00;101017.03;4918505;29;20047;-77
2021/01/14 05:19:17;;;;;;;17.45;6.72;;;;;;;2.76;100.00;101026.66;4922591;29;20032;-75
2021/01/14 05:21:45;;;;;;;13.52;6.78;;;;;;;2.87;100.00;101032.56;4909069;29;20024;-75
2021/01/14 05:24:13;;;;;;;15.15;7.47;;;;;;;2.72;100.00;101030.97;4915049;29;20298;-75
2021/01/14 05:26:40;;;;;;;14.27;7.10;;;;;;;2.67;100.00;101033.75;4919974;29;20119;-75
2021/01/14 05:29:17;;;;;;;15.77;6.70;;;;;;;2.75;100.00;101038.38;4919043;29;20039;-75
2021/01/14 05:31:44;;;;;;;12.73;6.47;;;;;;;2.70;100.00;101043.78;4919109;29;20056;-75
2021/01/14 05:34:10;;;;;;;13.93;6.43;;;;;;;2.67;100.00;101044.38;4911276;29;20035;-76
2021/01/14 05:36:55;;;;;;;14.82;7.43;;;;;;;2.74;100.00;101056.22;4919889;29;20051;-76
2021/01/14 05:39:22;;;;;;;15.10;7.07;;;;;;;2.75;100.00;101057.78;4896765;29;20118;-75
2021/01/14 05:41:48;;;;;;;16.42;7.90;;;;;;;2.74;100.00;101055.41;4919648;29;20489;-76
2021/01/14 05:44:15;;;;;;;16.15;7.18;;;;;;;2.65;100.00;101060.59;4914829;29;20028;-76
2021/01/14 05:46:40;;;;;;;18.58;6.90;;;;;;;2.60;100.00;101066.00;4900458;29;20370;-76
2021/01/14 05:49:09;;;;;;;13.95;6.45;;;;;;;2.56;100.00;101072.19;4903034;29;20050;-76
2021/01/14 05:51:35;;;;;;;16.73;7.32;;;;;;;2.57;100.00;101066.59;4911519;29;20036;-75
2021/01/14 05:54:14;;;;;;;14.38;7.05;;;;;;;2.61;100.00;101072.13;4898526;29;20046;-76
2021/01/14 05:56:39;;;;;;;14.60;6.85;;;;;;;2.63;100.00;101072.63;4902688;29;20043;-76
2021/01/14 05:59:16;;;;;;;13.95;7.10;;;;;;;2.64;100.00;101074.97;4915633;29;20040;-75
2021/01/14 06:02:18;;;;;;;17.45;6.97;;;;;;;2.56;100.00;101080.16;4916623;29;20040;-76
2021/01/14 06:04:44;;;;;;;14.23;7.30;;;;;;;2.70;100.00;101086.31;4900611;29;20055;-76
2021/01/14 06:07:11;;;;;;;17.40;7.57;;;;;;;2.71;100.00;101088.66;4918041;29;20637;-77
2021/01/14 06:09:41;;;;;;;13.55;7.18;;;;;;;2.67;100.00;101098.31;4925146;29;20039;-76
2021/01/14 06:12:08;;;;;;;17.83;7.82;;;;;;;2.67;100.00;101100.97;4903360;29;20039;-76
2021/01/14 06:14:34;;;;;;;16.23;7.03;;;;;;;2.71;100.00;101104.63;4892060;29;20836;-75
2021/01/14 06:17:06;;;;;;;13.98;7.32;;;;;;;2.69;100.00;101108.66;4923535;29;20050;-76
2021/01/14 06:19:32;;;;;;;19.73;7.40;;;;;;;2.65;100.00;101116.41;4915122;29;20059;-75
2021/01/14 06:21:59;;;;;;;17.88;7.38;;;;;;;2.63;100.00;101128.44;4905333;29;20038;-76
2021/01/14 06:24:30;;;;;;;21.45;7.30;;;;;;;2.62;100.00;101127.63;4917591;29;20114;-77
2021/01/14 06:27:05;;;;;;;11.98;6.63;;;;;;;2.67;100.00;101124.13;4903594;29;20115;-75
2021/01/14 06:29:42;;;;;;;12.05;6.93;;;;;;;2.62;100.00;101132.94;4895121;29;20053;-75
2021/01/14 06:32:11;;;;;;;16.90;7.65;;;;;;;2.71;100.00;101141.03;4912667;29;20036;-75
2021/01/14 06:34:39;;;;;;;15.82;6.68;;;;;;;2.71;100.00;101146.34;4929186;29;20047;-75
2021/01/14 06:37:17;;;;;;;15.77;6.93;;;;;;;2.69;100.00;101145.88;4918192;29;20031;-75
2021/01/14 06:39:49;;;;;;;18.05;7.47;;;;;;;2.67;100.00;101148.03;4934831;29;20043;-77
2021/01/14 06:42:30;;;;;;;;;;;;;;;2.70;100.00;101160.75;4926184;29;20512;-75
2021/01/14 06:44:57;;;;;;;13.00;6.00;;;;;;;2.81;100.00;101162.16;4921109;29;19970;-77
2021/01/14 06:47:44;;;;;;;14.70;7.07;;;;;;;2.69;100.00;101159.19;4918374;29;20028;-75
2021/01/14 06:50:09;;;;;;;15.57;6.65;;;;;;;2.60;100.00;101163.56;4907121;29;20060;-75
2021/01/14 06:52:42;;;;;;;13.93;7.50;;;;;;;2.54;100.00;101160.19;4909525;29;20482;-75
2021/01/14 06:55:08;;;;;;;12.45;6.95;;;;;;;2.53;100.00;101171.91;4910341;29;20038;-76
2021/01/14 06:57:35;;;;;;;16.17;7.20;;;;;;;2.62;100.00;101169.38;4893895;29;20054;-76
2021/01/14 07:00:04;;;;;;;18.02;7.22;;;;;;;2.67;100.00;101171.97;4914175;29;20172;-75
2021/01/14 07:02:53;;;;;;;13.88;6.97;;;;;;;2.56;100.00;101178.50;4914906;29;20040;-75
2021/01/14 07:05:32;;;;;;;13.32;6.90;;;;;;;2.49;100.00;101186.03;4916050;29;20032;-76
2021/01/14 07:08:24;;;;;;;15.85;6.88;;;;;;;2.36;100.00;101200.81;4906146;29;20110;-76
2021/01/14 07:11:17;;;;;;;19.02;7.53;;;;;;;2.34;100.00;101197.66;4912771;29;20032;-76
2021/01/14 07:13:46;;;;;;;32.60;16.30;;;;;;;2.19;100.00;101197.09;4925608;29;20068;-77
2021/01/14 07:16:15;;;;;;;34.45;18.52;;;;;;;2.05;100.00;101204.16;4900749;29;20055;-76
2021/01/14 07:18:41;;;;;;;26.75;14.95;;;;;;;1.98;100.00;101207.16;4907086;29;20461;-77
2021/01/14 07:21:36;;;;;;;23.48;12.82;;;;;;;1.94;100.00;101215.97;4916031;29;20047;-76
2021/01/14 07:24:20;;;;;;;21.05;9.23;;;;;;;2.18;100.00;101216.75;4903987;29;20405;-76
2021/01/14 07:26:46;;;;;;;14.85;8.63;;;;;;;2.29;100.00;101228.81;4895728;29;20095;-76
2021/01/14 07:29:14;;;;;;;15.20;8.15;;;;;;;2.25;100.00;101231.25;4912411;29;20134;-76
2021/01/14 07:31:51;;;;;;;17.55;7.78;;;;;;;2.09;100.00;101242.34;4908899;29;20781;-76
2021/01/14 07:34:42;;;;;;;19.70;8.25;;;;;;;2.07;100.00;101239.19;4905753;29;20035;-76
2021/01/14 07:37:13;;;;;;;18.67;8.85;;;;;;;2.02;100.00;101249.84;4912231;29;20047;-77
2021/01/14 07:39:51;;;;;;;14.35;8.20;;;;;;;2.07;100.00;101257.78;4914110;29;20047;-75
2021/01/14 07:42:28;;;;;;;18.13;7.35;;;;;;;2.07;100.00;101253.25;4905831;29;20421;-76
2021/01/14 07:44:56;;;;;;;16.08;8.23;;;;;;;2.06;100.00;101266.81;4908075;29;20417;-76
2021/01/14 07:47:36;;;;;;;14.43;7.88;;;;;;;2.11;100.00;101269.44;4907755;29;20047;-76
2021/01/14 07:50:24;;;;;;;15.18;7.45;;;;;;;2.12;100.00;101269.13;4917091;29;20155;-76
2021/01/14 07:52:52;;;;;;;15.27;7.90;;;;;;;2.15;100.00;101276.53;4909943;29;20059;-77
2021/01/14 07:55:26;;;;;;;13.48;7.97;;;;;;;2.12;100.00;101282.41;4900071;29;20495;-76
2021/01/14 07:58:05;;;;;;;15.93;9.00;;;;;;;2.22;100.00;101278.84;4902066;29;20037;-76
2021/01/14 08:00:32;;;;;;;12.80;8.57;;;;;;;2.14;100.00;101282.13;4925753;29;20039;-76
2021/01/14 08:03:14;;;;;;;16.50;8.93;;;;;;;2.16;100.00;101287.94;4915506;29;20055;-76
2021/01/14 08:05:57;;;;;;;16.70;8.38;;;;;;;2.20;100.00;101287.13;4916790;29;20127;-77
2021/01/14 08:08:23;;;;;;;13.88;7.32;;;;;;;2.30;100.00;101294.16;4916028;29;20067;-76
2021/01/14 08:11:08;;;;;;;15.77;7.43;;;;;;;2.43;100.00;101293.47;4914118;29;20067;-76
2021/01/14 08:14:12;;;;;;;18.20;7.28;;;;;;;2.44;100.00;101287.09;4927300;29;20042;-76
2021/01/14 08:16:47;;;;;;;16.38;6.53;;;;;;;2.52;100.00;101294.41;4917809;29;20033;-77
2021/01/14 08:19:30;;;;;;;17.52;7.00;;;;;;;2.52;100.00;101297.88;4901943;29;20425;-76
2021/01/14 08:22:05;;;;;;;14.02;7.25;;;;;;;2.62;100.00;101305.72;4898999;29;20043;-76
2021/01/14 08:24:54;;;;;;;17.88;7.22;;;;;;;2.64;100.00;101311.56;4904555;29;20103;-77
2021/01/14 08:27:36;;;;;;;18.77;7.18;;;;;;;2.69;100.00;101308.03;4919654;29;20032;-76
2021/01/14 08:30:07;;;;;;;15.38;6.88;;;;;;;2.68;100.00;101314.44;4915830;29;20497;-77
2021/01/14 08:32:37;;;;;;;18.33;7.22;;;;;;;2.65;100.00;101329.06;4916053;29;20051;-76
2021/01/14 08:35:14;;;;;;;16.05;7.75;;;;;;;2.65;100.00;101322.97;4919981;29;20041;-78
2021/01/14 08:37:48;;;;;;;16.80;8.30;;;;;;;2.57;100.00;101335.03;4923053;29;20095;-76
2021/01/14 08:40:25;;;;;;;14.18;7.63;;;;;;;2.55;100.00;101337.19;4907576;29;20454;-76
2021/01/14 08:43:10;;;;;;;13.73;7.32;;;;;;;2.50;100.00;101342.53;4915319;29;20048;-77
2021/01/14 08:45:54;;;;;;;15.38;8.10;;;;;;;2.59;100.00;101346.16;4908583;29;20127;-77
2021/01/14 08:48:24;;;;;;;13.70;7.65;;;;;;;2.65;100.00;101349.56;4911963;29;20139;-77
2021/01/14 08:50:56;;;;;;;12.43;7.20;;;;;;;2.61;100.00;101351.19;4914772;29;20041;-76
2021/01/14 08:53:21;;;;;;;18.63;7.22;;;;;;;2.57;100.00;101355.50;4911481;29;21109;-76
2021/01/14 08:56:20;;;;;;;15.32;7.40;;;;;;;2.64;100.00;101363.91;4914221;29;20122;-76
2021/01/14 08:58:47;;;;;;;14.10;7.20;;;;;;;2.70;100.00;101362.78;4908510;29;20112;-77
2021/01/14 09:01:21;;;;;;;16.52;7.28;;;;;;;2.75;100.00;101365.38;4896628;29;20514;-77
2021/01/14 09:03:47;;;;;;;14.85;7.03;;;;;;;2.74;100.00;101359.28;4915227;29;20079;-78
2021/01/14 09:06:17;;;;;;;14.48;6.72;;;;;;;2.76;100.00;101366.97;4905428;29;20043;-77
2021/01/14 09:08:51;;;;;;;14.60;6.78;;;;;;;2.78;100.00;101358.69;4923462;29;20042;-76
2021/01/14 09:11:23;;;;;;;15.30;6.80;;;;;;;2.79;100.00;101373.59;4921384;29;20091;-76
2021/01/14 09:13:48;;;;;;;14.30;6.40;;;;;;;2.83;100.00;101378.03;4910908;29;20111;-77
2021/01/14 09:16:14;;;;;;;15.43;6.32;;;;;;;2.88;100.00;101371.88;4898397;29;20049;-77
2021/01/14 09:18:42;;;;;;;11.10;5.95;;;;;;;2.70;100.00;101378.72;4907722;29;20075;-76
2021/01/14 09:21:09;;;;;;;18.95;10.20;;;;;;;2.75;100.00;101376.81;4912932;29;20036;-76
2021/01/14 09:23:37;;;;;;;23.55;13.60;;;;;;;2.78;100.00;101380.75;4911018;29;20059;-77
2021/01/14 09:26:03;;;;;;;18.63;11.75;;;;;;;2.78;100.00;101369.34;4919530;29;20036;-76
2021/01/14 09:28:31;;;;;;;16.30;11.23;;;;;;;2.73;100.00;101383.47;4913089;29;20092;-77
2021/01/14 09:31:01;;;;;;;15.25;8.45;;;;;;;2.74;100.00;101390.38;4898243;29;20035;-76
2021/01/14 09:33:31;;;;;;;16.33;6.85;;;;;;;2.80;100.00;101385.78;4901613;29;20040;-76
2021/01/14 09:36:04;;;;;;;10.18;6.95;;;;;;;2.82;100.00;101396.94;4902640;29;20044;-76
2021/01/14 09:38:51;;;;;;;11.07;6.50;;;;;;;2.82;100.00;101397.75;4921449;29;20048;-77
2021/01/14 09:41:29;;;;;;;10.73;6.03;;;;;;;2.89;100.00;101400.84;4910087;29;20049;-77
2021/01/14 09:44:06;;;;;;;16.90;6.70;;;;;;;2.87;100.00;101400.31;4885346;29;20641;-76
2021/01/14 09:46:35;;;;;;;12.80;6.22;;;;;;;2.94;100.00;101414.09;4913234;29;20413;-76
2021/01/14 09:49:09;;;;;;;12.05;6.13;;;;;;;2.87;100.00;101418.13;4915055;29;20039;-78
2021/01/14 09:51:36;;;;;;;12.10;6.25;;;;;;;2.87;100.00;101415.47;4927332;29;20965;-77
2021/01/14 09:54:06;;;;;;;12.27;7.65;;;;;;;2.92;100.00;101410.91;4912535;29;20031;-76
2021/01/14 09:56:31;;;;;;;14.70;8.70;;;;;;;2.91;100.00;101425.28;4916840;29;20118;-76
2021/01/14 09:59:26;;;;;;;17.73;9.13;;;;;;;2.94;100.00;101432.69;4901033;29;20522;-77
2021/01/14 10:01:55;;;;;;;12.63;6.97;;;;;;;2.98;100.00;101430.25;4894224;29;20395;-77
2021/01/14 10:04:24;;;;;;;11.30;6.47;;;;;;;2.95;100.00;101423.63;4920012;29;20325;-77
2021/01/14 10:06:59;;;;;;;12.82;6.72;;;;;;;2.98;100.00;101423.06;4925538;29;20039;-76
2021/01/14 10:09:26;;;;;;;11.80;6.55;;;;;;;3.04;100.00;101429.91;4904234;29;20040;-77
2021/01/14 10:11:52;;;;;;;13.60;6.03;;;;;;;3.04;100.00;101429.13;4925996;29;20090;-77
2021/01/14 10:14:19;;;;;;;12.35;6.68;;;;;;;3.07;100.00;101432.00;4888214;29;20827;-77
2021/01/14 10:16:45;;;;;;;15.15;6.53;;;;;;;3.03;100.00;101438.16;4902220;29;20043;-77
2021/01/14 10:19:15;;;;;;;9.82;5.95;;;;;;;3.03;100.00;101443.47;4917919;29;20047;-76
2021/01/14 10:21:42;;;;;;;11.00;6.22;;;;;;;3.04;100.00;101442.44;4893041;29;20040;-76
2021/01/14 10:24:25;;;;;;;13.38;6.65;;;;;;;3.06;100.00;101449.03;4911151;29;20047;-77
2021/01/14 10:26:52;;;;;;;11.98;6.15;;;;;;;3.01;100.00;101443.78;4908786;29;20071;-77
2021/01/14 10:29:29;;;;;;;11.82;6.32;;;;;;;3.03;100.00;101454.94;4921567;29;20040;-76
2021/01/14 10:32:02;;;;;;;12.00;6.60;;;;;;;3.03;100.00;101451.47;4926679;29;20037;-77
2021/01/14 10:34:51;;;;;;;11.30;6.15;;;;;;;2.99;100.00;101440.59;4896332;29;20192;-76
2021/01/14 10:37:31;;;;;;;16.33;6.68;;;;;;;2.98;100.00;101454.19;4903683;29;20033;-77
2021/01/14 10:40:18;;;;;;;14.45;7.05;;;;;;;2.94;100.00;101447.84;4916172;29;20028;-77
2021/01/14 10:42:48;;;;;;;11.85;6.53;;;;;;;2.91;100.00;101459.03;4914263;29;20425;-77
2021/01/14 10:45:24;;;;;;;9.32;5.88;;;;;;;2.91;100.00;101464.38;4911621;29;20028;-76
2021/01/14 10:47:50;;;;;;;13.20;6.45;;;;;;;3.12;100.00;101465.72;4914760;29;20087;-77
2021/01/14 10:50:23;;;;;;;9.68;6.10;;;;;;;3.05;100.00;101468.72;4917737;29;20036;-77
2021/01/14 10:52:59;;;;;;;16.48;6.70;;;;;;;2.99;100.00;101469.88;4898828;29;20082;-77
2021/01/14 10:55:29;;;;;;;13.15;6.68;;;;;;;3.04;100.00;101475.13;4918888;29;20057;-77
2021/01/14 10:57:56;;;;;;;10.75;6.05;;;;;;;3.04;100.00;101484.97;4917333;29;20040;-77
2021/01/14 11:00:24;;;;;;;10.45;6.18;;;;;;;3.05;100.00;101470.59;4919640;29;20090;-78
2021/01/14 11:03:07;;;;;;;13.20;7.10;;;;;;;3.03;100.00;101468.22;4919727;29;20142;-78
2021/01/14 11:05:50;;;;;;;9.35;5.55;;;;;;;3.06;100.00;101477.50;4910367;29;20541;-77
2021/01/14 11:08:23;;;;;;;13.88;6.65;;;;;;;3.12;100.00;101474.50;4927269;29;20035;-76
2021/01/14 11:11:05;;;;;;;14.07;6.28;;;;;;;3.02;100.00;101482.59;4909912;29;20036;-76
2021/01/14 11:13:42;;;;;;;12.27;6.18;;;;;;;3.02;100.00;101473.84;4911049;29;20043;-77
2021/01/14 11:16:12;;;;;;;12.15;6.45;;;;;;;3.06;100.00;101485.50;4918066;29;20067;-77
2021/01/14 11:18:40;;;;;;;14.05;7.30;;;;;;;3.05;100.00;101484.69;4923262;29;20645;-76
2021/01/14 11:21:06;;;;;;;16.02;6.35;;;;;;;2.99;100.00;101483.16;4926367;29;20104;-76
2021/01/14 11:23:35;;;;;;;12.85;6.57;;;;;;;3.00;100.00;101490.06;4909552;29;20285;-77
2021/01/14 11:26:03;;;;;;;11.25;6.53;;;;;;;3.01;100.00;101481.00;4913135;29;20505;-76
2021/01/14 11:28:30;;;;;;;10.80;6.82;;;;;;;2.98;100.00;101478.13;4921904;29;20065;-77
2021/01/14 11:30:56;;;;;;;12.40;6.55;;;;;;;3.01;100.00;101481.00;4908925;29;20028;-77
2021/01/14 11:33:22;;;;;;;9.93;6.35;;;;;;;3.00;100.00;101474.09;4917889;29;20451;-78
2021/01/14 11:35:47;;;;;;;17.00;6.63;;;;;;;3.05;100.00;101476.72;4915701;29;20032;-77